Time;durP1;ratioP1;P1;durP2;ratioP2;P2;SDS_P1;SDS_P2;PMS_P1;PMS_P2;Temp;Humidity;BMP_temperature;BMP_pressure;BME280_temperature;BME280_humidity;BME280_pressure;Samples;Min_cycle;Max_cycle;Signal;HPM_P1;HPM_P2
2023/06/29 00:00:23;;;;;;;6.88;5.53;;;;;;;13.65;100.00;94041.66;5042173;28;20044;-63
2023/06/29 00:02:52;;;;;;;8.32;5.97;;;;;;;13.68;100.00;94049.09;5064570;28;20047;-64
2023/06/29 00:05:21;;;;;;;6.60;5.38;;;;;;;13.66;100.00;94050.69;5068156;28;20097;-63
2023/06/29 00:07:48;;;;;;;7.47;5.90;;;;;;;13.67;100.00;94050.28;5055658;28;20412;-64
2023/06/29 00:10:15;;;;;;;8.70;5.80;;;;;;;13.66;100.00;94039.66;5068801;28;20075;-64
2023/06/29 00:12:42;;;;;;;7.15;5.30;;;;;;;13.61;100.00;94042.97;5068520;28;20053;-64
2023/06/29 00:15:09;;;;;;;7.75;5.90;;;;;;;13.56;100.00;94045.03;5068721;28;20059;-64
2023/06/29 00:17:36;;;;;;;34.15;21.20;;;;;;;13.55;100.00;94037.19;5067978;28;20121;-64
2023/06/29 00:20:09;;;;;;;14.10;9.30;;;;;;;13.47;100.00;94038.56;5070360;28;20515;-65
2023/06/29 00:22:36;;;;;;;8.93;6.20;;;;;;;13.42;100.00;94037.13;5067885;28;20044;-64
2023/06/29 00:25:04;;;;;;;9.60;6.13;;;;;;;13.38;100.00;94031.69;5055172;28;20037;-64
2023/06/29 00:27:30;;;;;;;10.00;5.72;;;;;;;13.38;100.00;94028.13;5067528;28;20044;-64
2023/06/29 00:29:57;;;;;;;8.57;6.00;;;;;;;13.38;100.00;94033.66;5074393;28;20052;-64
2023/06/29 00:32:24;;;;;;;8.50;6.30;;;;;;;13.35;100.00;94024.25;5050003;28;20044;-63
2023/06/29 00:34:51;;;;;;;8.25;6.50;;;;;;;13.37;100.00;94021.09;5068052;28;20044;-64
2023/06/29 00:37:17;;;;;;;9.32;6.47;;;;;;;13.38;100.00;94019.84;5063229;28;20045;-64
2023/06/29 00:39:44;;;;;;;10.23;6.53;;;;;;;13.34;100.00;94019.16;5059141;28;21702;-64
2023/06/29 00:42:11;;;;;;;7.70;6.03;;;;;;;13.28;100.00;94009.84;5062716;28;20049;-64
2023/06/29 00:44:38;;;;;;;8.10;6.00;;;;;;;13.26;100.00;94015.81;5047895;28;20045;-64
2023/06/29 00:47:05;;;;;;;8.05;6.20;;;;;;;13.27;100.00;94005.56;5065529;28;20074;-64
2023/06/29 00:49:32;;;;;;;7.40;5.88;;;;;;;13.24;100.00;94015.47;5067761;28;20101;-63
2023/06/29 00:51:59;;;;;;;8.07;6.07;;;;;;;13.25;100.00;94016.22;5067556;28;20082;-64
2023/06/29 00:54:26;;;;;;;7.80;6.07;;;;;;;13.07;100.00;94020.16;5067628;28;20048;-64
2023/06/29 00:56:53;;;;;;;8.43;6.20;;;;;;;13.00;100.00;94023.09;5065754;28;20056;-64
2023/06/29 00:59:19;;;;;;;8.80;6.10;;;;;;;12.86;100.00;94015.13;5056266;28;20059;-64
2023/06/29 01:01:46;;;;;;;8.05;5.72;;;;;;;12.83;100.00;94013.25;5067946;28;20040;-64
2023/06/29 01:04:25;;;;;;;10.32;5.97;;;;;;;12.86;100.00;94018.69;5068037;28;20055;-64
2023/06/29 01:07:00;;;;;;;9.85;6.20;;;;;;;12.89;100.00;94011.53;5067388;28;20033;-63
2023/06/29 01:09:29;;;;;;;8.07;6.30;;;;;;;12.84;100.00;94007.31;5051397;28;20070;-63
2023/06/29 01:11:58;;;;;;;8.27;6.47;;;;;;;12.81;100.00;94002.66;5071869;28;20057;-64
2023/06/29 01:14:26;;;;;;;8.95;6.82;;;;;;;12.74;100.00;93992.59;5071222;28;20044;-63
2023/06/29 01:16:55;;;;;;;8.30;6.60;;;;;;;12.73;100.00;93995.75;5069911;28;20054;-64
2023/06/29 01:19:25;;;;;;;8.48;6.63;;;;;;;12.77;100.00;93990.94;5060660;28;20044;-63
2023/06/29 01:22:02;;;;;;;9.97;6.70;;;;;;;12.72;100.00;93985.97;5073635;28;20067;-64
2023/06/29 01:24:37;;;;;;;10.13;7.30;;;;;;;12.65;100.00;93984.13;5061865;28;20071;-64
2023/06/29 01:27:05;;;;;;;8.57;6.35;;;;;;;12.70;100.00;93977.34;5069335;28;20033;-64
2023/06/29 01:29:31;;;;;;;10.10;6.85;;;;;;;12.69;100.00;93978.56;5073456;28;20060;-63
2023/06/29 01:32:00;;;;;;;9.70;6.60;;;;;;;12.70;100.00;93980.88;5061860;28;20045;-64
2023/06/29 01:34:31;;;;;;;8.53;6.20;;;;;;;12.72;100.00;93980.47;5071170;28;20235;-64
2023/06/29 01:37:08;;;;;;;8.48;6.60;;;;;;;12.71;100.00;93973.38;5069166;28;20037;-64
2023/06/29 01:39:44;;;;;;;9.05;6.47;;;;;;;12.68;100.00;93975.03;5061984;28;20044;-64
2023/06/29 01:42:12;;;;;;;8.52;6.40;;;;;;;12.69;100.00;93978.56;5053630;28;20616;-64
2023/06/29 01:44:39;;;;;;;8.77;6.38;;;;;;;12.65;100.00;93970.38;5042528;28;20045;-64
2023/06/29 01:47:10;;;;;;;8.37;6.33;;;;;;;12.61;100.00;93966.16;5068850;28;20460;-64
2023/06/29 01:49:37;;;;;;;9.68;6.70;;;;;;;12.51;100.00;93970.69;5070963;28;20056;-64
2023/06/29 01:52:05;;;;;;;8.07;6.30;;;;;;;12.44;100.00;93973.59;5071341;28;20412;-64
2023/06/29 01:54:32;;;;;;;9.77;6.15;;;;;;;12.44;100.00;93977.13;5070988;28;20473;-63
2023/06/29 01:56:58;;;;;;;9.07;6.70;;;;;;;12.31;100.00;93971.47;5071161;28;20044;-64
2023/06/29 01:59:25;;;;;;;9.13;6.83;;;;;;;12.40;100.00;93979.19;5070900;28;20460;-63
2023/06/29 02:01:52;;;;;;;8.13;6.90;;;;;;;12.43;100.00;93970.06;5071266;28;20036;-64
2023/06/29 02:04:19;;;;;;;9.40;7.10;;;;;;;12.38;100.00;93976.06;5070556;28;20074;-64
2023/06/29 02:06:46;;;;;;;10.48;7.03;;;;;;;12.37;100.00;93972.56;5071066;28;20036;-64
2023/06/29 02:09:13;;;;;;;10.60;7.30;;;;;;;12.35;100.00;93974.97;5049979;28;20604;-64
2023/06/29 02:11:39;;;;;;;8.20;6.57;;;;;;;12.36;100.00;93973.75;5064201;28;20499;-64
2023/06/29 02:14:06;;;;;;;9.73;7.13;;;;;;;12.35;100.00;93960.41;5071207;28;20044;-64
2023/06/29 02:16:33;;;;;;;10.57;7.35;;;;;;;12.33;100.00;93963.56;5053086;28;20054;-64
2023/06/29 02:19:00;;;;;;;9.98;7.38;;;;;;;12.34;100.00;93959.63;5070770;28;20109;-64
2023/06/29 02:21:26;;;;;;;8.63;6.90;;;;;;;12.34;100.00;93959.63;5072628;28;20173;-63
2023/06/29 02:23:53;;;;;;;9.43;7.33;;;;;;;12.36;100.00;93956.47;5066085;28;20049;-64
2023/06/29 02:26:20;;;;;;;9.90;7.18;;;;;;;12.26;100.00;93952.72;5061967;28;20057;-63
2023/06/29 02:28:48;;;;;;;9.77;7.50;;;;;;;12.22;100.00;93959.53;5070732;28;20442;-64
2023/06/29 02:31:15;;;;;;;9.30;6.80;;;;;;;12.17;100.00;93967.06;5066736;28;20041;-64
2023/06/29 02:33:42;;;;;;;9.57;7.25;;;;;;;12.13;100.00;93966.38;5067403;28;20113;-64
2023/06/29 02:36:09;;;;;;;10.77;7.30;;;;;;;12.05;100.00;93966.91;5070470;28;20052;-64
2023/06/29 02:38:36;;;;;;;10.50;6.78;;;;;;;11.94;100.00;93967.16;5070084;28;20110;-64
2023/06/29 02:41:03;;;;;;;9.38;7.20;;;;;;;11.96;100.00;93962.00;5070460;28;20060;-64
2023/06/29 02:43:29;;;;;;;13.18;8.20;;;;;;;12.01;100.00;93967.00;5068499;28;20048;-63
2023/06/29 02:45:56;;;;;;;10.05;7.22;;;;;;;11.91;100.00;93968.78;5058787;28;20495;-64
2023/06/29 02:48:23;;;;;;;9.70;7.27;;;;;;;11.84;100.00;93971.63;5069818;28;20048;-64
2023/06/29 02:50:50;;;;;;;11.18;7.22;;;;;;;11.80;100.00;93965.41;5063696;28;20048;-64
2023/06/29 02:53:16;;;;;;;8.43;6.75;;;;;;;11.86;100.00;93963.72;5064037;28;20055;-64
2023/06/29 02:55:43;;;;;;;31.48;21.25;;;;;;;11.88;100.00;93972.31;5069326;28;20356;-64
2023/06/29 02:58:10;;;;;;;28.02;19.10;;;;;;;11.90;100.00;93972.72;5040267;28;20638;-64
2023/06/29 03:00:37;;;;;;;15.90;10.30;;;;;;;11.90;100.00;93966.44;5068876;28;20044;-63
2023/06/29 03:03:04;;;;;;;12.25;8.82;;;;;;;11.90;100.00;93975.47;5070129;28;20393;-64
2023/06/29 03:05:30;;;;;;;11.55;7.63;;;;;;;11.90;100.00;93971.94;5069492;28;20032;-64
2023/06/29 03:07:57;;;;;;;11.38;8.00;;;;;;;11.77;100.00;93963.50;5070140;28;20052;-64
2023/06/29 03:10:24;;;;;;;10.45;7.60;;;;;;;11.71;100.00;93965.97;5065682;28;20037;-64
2023/06/29 03:12:51;;;;;;;10.13;7.83;;;;;;;11.67;100.00;93978.22;5060428;28;20218;-64
2023/06/29 03:15:17;;;;;;;10.70;8.10;;;;;;;11.72;100.00;93975.75;5069550;28;20066;-64
2023/06/29 03:17:44;;;;;;;11.48;8.52;;;;;;;11.68;100.00;93977.03;5068875;28;20521;-64
2023/06/29 03:20:13;;;;;;;14.25;8.55;;;;;;;11.67;100.00;93984.50;5053551;28;20044;-64
2023/06/29 03:22:40;;;;;;;9.70;8.00;;;;;;;11.72;100.00;93977.75;5068942;28;20040;-64
2023/06/29 03:25:12;;;;;;;9.80;7.53;;;;;;;11.75;100.00;93972.19;5056397;28;20052;-64
2023/06/29 03:27:39;;;;;;;9.80;7.32;;;;;;;11.79;100.00;93977.59;5051072;28;20401;-64
2023/06/29 03:30:06;;;;;;;9.73;7.43;;;;;;;11.67;100.00;93976.28;5074666;28;20046;-64
2023/06/29 03:32:33;;;;;;;11.95;7.90;;;;;;;11.68;100.00;93979.78;5056515;28;20413;-64
2023/06/29 03:35:00;;;;;;;11.25;7.40;;;;;;;11.73;100.00;93973.78;5069651;28;20060;-64
2023/06/29 03:37:26;;;;;;;11.13;8.30;;;;;;;11.67;100.00;93978.22;5062490;28;20048;-64
2023/06/29 03:39:53;;;;;;;11.27;8.00;;;;;;;11.54;100.00;93984.34;5062792;28;20049;-65
2023/06/29 03:42:20;;;;;;;11.88;8.82;;;;;;;11.08;100.00;93985.91;5068910;28;20040;-64
2023/06/29 03:44:47;;;;;;;10.23;8.32;;;;;;;11.39;100.00;93972.84;5039543;28;20053;-64
2023/06/29 03:47:13;;;;;;;11.93;7.88;;;;;;;11.63;100.00;93974.75;5068223;28;20041;-64
2023/06/29 03:49:40;;;;;;;12.43;8.40;;;;;;;11.73;100.00;93968.28;5051148;28;20040;-64
2023/06/29 03:52:07;;;;;;;10.43;7.75;;;;;;;11.79;100.00;93970.16;5068746;28;20040;-65
2023/06/29 03:54:33;;;;;;;9.82;7.28;;;;;;;11.87;100.00;93968.03;5068717;28;20040;-64
2023/06/29 03:57:01;;;;;;;9.63;7.00;;;;;;;11.91;100.00;93974.28;5065859;28;20044;-64
2023/06/29 03:59:28;;;;;;;10.77;7.57;;;;;;;11.91;100.00;93962.47;5058630;28;20036;-64
2023/06/29 04:01:55;;;;;;;10.40;7.47;;;;;;;11.95;100.00;93952.19;5068700;28;20036;-64
2023/06/29 04:04:21;;;;;;;8.95;7.32;;;;;;;12.02;100.00;93954.03;5059650;28;20044;-64
2023/06/29 04:06:48;;;;;;;13.45;9.10;;;;;;;12.14;100.00;93951.41;5045263;28;20048;-64
2023/06/29 04:09:15;;;;;;;11.93;8.20;;;;;;;12.17;100.00;93944.28;5068612;28;20045;-65
2023/06/29 04:11:42;;;;;;;11.02;7.75;;;;;;;12.27;100.00;93935.00;5067021;28;20040;-64
2023/06/29 04:14:08;;;;;;;11.07;7.80;;;;;;;12.12;100.00;93937.28;5056673;28;20052;-65
2023/06/29 04:16:35;;;;;;;9.77;7.40;;;;;;;11.72;100.00;93951.03;5068059;28;20677;-64
2023/06/29 04:19:02;;;;;;;11.57;8.40;;;;;;;11.92;100.00;93950.28;5050584;28;20048;-65
2023/06/29 04:21:28;;;;;;;10.07;7.97;;;;;;;12.17;100.00;93950.56;5058457;28;20063;-63
2023/06/29 04:23:55;;;;;;;11.90;7.57;;;;;;;12.31;100.00;93954.19;5050683;28;20724;-63
2023/06/29 04:26:22;;;;;;;10.17;7.90;;;;;;;12.35;100.00;93949.41;5056583;28;20055;-63
2023/06/29 04:28:50;;;;;;;12.13;8.18;;;;;;;12.59;100.00;93950.06;5066966;28;20041;-64
2023/06/29 04:31:17;;;;;;;11.48;8.60;;;;;;;14.14;100.00;93947.72;5046713;28;20045;-64
2023/06/29 04:33:44;;;;;;;12.70;8.32;;;;;;;15.95;100.00;93938.88;5064543;28;20423;-63
2023/06/29 04:36:13;;;;;;;11.23;8.02;;;;;;;17.42;100.00;93931.72;5068229;28;20045;-64
2023/06/29 04:38:40;;;;;;;10.10;7.60;;;;;;;18.36;100.00;93930.06;5049769;28;20402;-64
2023/06/29 04:41:07;;;;;;;9.95;7.30;;;;;;;18.73;97.16;93932.75;5068120;28;20061;-64
2023/06/29 04:43:36;;;;;;;9.77;7.57;;;;;;;18.28;95.27;93937.19;5064847;28;20051;-64
2023/06/29 04:46:03;;;;;;;9.52;7.68;;;;;;;17.02;100.00;93930.53;5057474;28;20546;-64
2023/06/29 04:48:37;;;;;;;10.23;7.47;;;;;;;16.25;100.00;93935.84;5049813;28;20047;-63
2023/06/29 04:51:05;;;;;;;10.43;8.20;;;;;;;14.96;100.00;93941.00;5059285;28;20170;-63
2023/06/29 04:53:33;;;;;;;9.63;8.10;;;;;;;14.56;100.00;93938.66;5063359;28;20143;-63
2023/06/29 04:56:01;;;;;;;10.32;7.82;;;;;;;14.16;100.00;93947.28;5068045;28;20052;-63
2023/06/29 04:58:28;;;;;;;12.07;8.18;;;;;;;13.94;100.00;93947.13;5067311;28;20075;-63
2023/06/29 05:00:55;;;;;;;9.80;8.23;;;;;;;13.31;100.00;93940.88;5068063;28;20093;-63
2023/06/29 05:03:24;;;;;;;10.50;8.00;;;;;;;13.52;100.00;93947.06;5067378;28;20040;-63
2023/06/29 05:05:51;;;;;;;12.40;8.48;;;;;;;13.86;100.00;93940.25;5065545;28;20051;-63
2023/06/29 05:08:18;;;;;;;12.13;8.98;;;;;;;14.02;100.00;93933.91;5060636;28;20113;-63
2023/06/29 05:10:45;;;;;;;12.15;8.57;;;;;;;14.04;100.00;93940.53;5067030;28;20393;-63
2023/06/29 05:13:12;;;;;;;12.02;8.65;;;;;;;14.22;100.00;93939.25;5055050;28;20041;-63
2023/06/29 05:15:38;;;;;;;11.60;8.33;;;;;;;13.86;100.00;93937.50;5067402;28;20048;-64
2023/06/29 05:18:05;;;;;;;14.27;8.85;;;;;;;13.84;100.00;93939.91;5067775;28;20048;-64
2023/06/29 05:20:32;;;;;;;14.57;9.50;;;;;;;15.31;100.00;93927.22;5069083;28;20063;-64
2023/06/29 05:23:00;;;;;;;10.25;8.02;;;;;;;17.96;100.00;93919.91;5067403;28;20056;-65
2023/06/29 05:25:27;;;;;;;13.25;7.88;;;;;;;19.18;95.45;93915.63;5063056;28;20043;-65
2023/06/29 05:27:53;;;;;;;12.93;8.13;;;;;;;21.03;84.81;93915.59;5058344;28;20408;-66
2023/06/29 05:30:20;;;;;;;10.15;7.60;;;;;;;22.56;74.84;93914.72;5071795;28;20374;-65
2023/06/29 05:32:47;;;;;;;10.68;6.65;;;;;;;22.85;67.48;93914.47;5067681;28;20044;-66
2023/06/29 05:35:14;;;;;;;8.77;6.60;;;;;;;20.59;77.90;93918.44;5067701;28;20501;-66
2023/06/29 05:37:41;;;;;;;11.55;6.80;;;;;;;20.39;82.03;93922.63;5067111;28;20044;-66
2023/06/29 05:40:09;;;;;;;9.43;6.93;;;;;;;20.80;79.08;93913.69;5067540;28;20042;-66
2023/06/29 05:42:36;;;;;;;10.52;6.18;;;;;;;22.46;72.57;93914.91;5045784;28;20048;-66
2023/06/29 05:45:03;;;;;;;10.77;6.28;;;;;;;22.28;71.74;93909.63;5047672;28;20063;-65
2023/06/29 05:47:30;;;;;;;11.02;6.68;;;;;;;24.48;62.35;93906.19;5053015;28;20151;-66
2023/06/29 05:49:57;;;;;;;9.75;5.97;;;;;;;26.77;52.97;93895.50;5055793;28;20117;-64
2023/06/29 05:52:24;;;;;;;10.00;5.80;;;;;;;27.85;48.70;93901.69;5067004;28;20105;-64
2023/06/29 05:54:50;;;;;;;10.18;5.53;;;;;;;28.04;46.16;93904.56;5046496;28;20047;-63
2023/06/29 05:57:17;;;;;;;8.05;5.68;;;;;;;25.89;49.55;93894.88;5064167;28;20048;-63
2023/06/29 05:59:44;;;;;;;8.57;5.93;;;;;;;22.41;63.05;93898.06;5050123;28;20047;-63
2023/06/29 06:02:10;;;;;;;13.57;6.68;;;;;;;19.82;83.92;93895.72;5064336;28;20482;-63
2023/06/29 06:04:37;;;;;;;11.63;7.30;;;;;;;18.73;94.26;93893.06;5052866;28;20043;-65
2023/06/29 06:07:04;;;;;;;10.65;7.22;;;;;;;18.56;95.66;93895.44;5053066;28;20055;-63
2023/06/29 06:09:30;;;;;;;10.60;7.30;;;;;;;19.38;92.25;93904.69;5057351;28;20105;-64
2023/06/29 06:11:57;;;;;;;11.45;7.50;;;;;;;19.55;89.61;93905.78;5070222;28;20057;-63
2023/06/29 06:14:24;;;;;;;9.00;7.20;;;;;;;20.29;87.10;93898.88;5069980;28;20121;-63
2023/06/29 06:16:51;;;;;;;12.03;7.30;;;;;;;20.79;83.78;93901.03;5070980;28;20045;-64
2023/06/29 06:19:18;;;;;;;11.27;6.75;;;;;;;22.21;75.36;93898.84;5034125;28;20048;-64
2023/06/29 06:21:44;;;;;;;12.20;6.68;;;;;;;22.48;73.73;93892.03;5057279;28;21746;-64
2023/06/29 06:24:11;;;;;;;10.57;6.70;;;;;;;22.96;70.17;93885.81;5062366;28;20440;-64
2023/06/29 06:26:38;;;;;;;9.43;6.78;;;;;;;24.90;63.53;93879.19;5070145;28;20084;-64
2023/06/29 06:29:05;;;;;;;10.13;6.50;;;;;;;25.22;58.32;93889.44;5070556;28;20040;-64
2023/06/29 06:31:31;;;;;;;10.95;6.82;;;;;;;26.48;53.95;93889.22;5054209;28;20063;-64
2023/06/29 06:34:01;;;;;;;8.77;6.03;;;;;;;28.37;47.90;93877.22;5042234;28;20068;-64
2023/06/29 06:36:31;;;;;;;9.65;5.40;;;;;;;28.31;44.71;93882.16;5066256;28;20117;-64
2023/06/29 06:38:58;;;;;;;9.07;5.38;;;;;;;27.69;46.12;93887.25;5070966;28;20405;-65
2023/06/29 06:41:25;;;;;;;8.70;5.50;;;;;;;27.27;47.95;93877.44;5070072;28;20081;-64
2023/06/29 06:43:53;;;;;;;9.45;5.30;;;;;;;27.95;45.43;93880.31;5052904;28;20044;-64
2023/06/29 06:46:19;;;;;;;8.57;5.28;;;;;;;27.86;44.22;93883.47;5070126;28;20494;-64
2023/06/29 06:48:48;;;;;;;8.23;5.22;;;;;;;29.28;42.32;93874.59;5070692;28;20166;-65
2023/06/29 06:51:15;;;;;;;9.68;5.40;;;;;;;30.83;39.24;93869.69;5055764;28;20061;-64
2023/06/29 06:53:41;;;;;;;7.17;4.93;;;;;;;30.20;38.71;93872.34;5056209;28;20306;-65
2023/06/29 06:56:08;;;;;;;7.43;4.60;;;;;;;29.73;39.76;93878.69;5070655;28;20044;-65
2023/06/29 06:58:35;;;;;;;7.43;4.70;;;;;;;30.17;39.17;93876.28;5069943;28;20036;-65
2023/06/29 07:01:02;;;;;;;7.97;4.90;;;;;;;29.53;40.25;93877.97;5057073;28;20041;-65
2023/06/29 07:03:29;;;;;;;9.18;5.30;;;;;;;30.25;39.29;93871.47;5069845;28;20049;-65
2023/06/29 07:05:57;;;;;;;7.83;4.80;;;;;;;28.81;40.79;93872.25;5070079;28;20048;-65
2023/06/29 07:08:24;;;;;;;7.38;4.97;;;;;;;29.36;40.71;93867.00;5069366;28;20048;-65
2023/06/29 07:10:51;;;;;;;6.90;4.57;;;;;;;31.29;38.10;93866.53;5070704;28;20064;-65
2023/06/29 07:13:18;;;;;;;7.15;4.30;;;;;;;33.20;33.41;93863.94;5070144;28;20451;-65
2023/06/29 07:15:48;;;;;;;7.38;4.60;;;;;;;32.53;34.12;93871.69;5055955;28;20469;-65
2023/06/29 07:18:15;;;;;;;7.23;3.90;;;;;;;34.22;30.99;93869.00;5070190;28;20399;-65
2023/06/29 07:20:42;;;;;;;8.75;3.90;;;;;;;34.18;29.86;93860.09;5066110;28;20428;-65
2023/06/29 07:23:12;;;;;;;7.55;3.63;;;;;;;34.58;28.52;93865.81;5070011;28;20421;-66
2023/06/29 07:25:42;;;;;;;6.40;3.00;;;;;;;35.38;26.71;93864.25;5066347;28;20482;-65
2023/06/29 07:28:09;;;;;;;5.28;2.95;;;;;;;33.48;29.31;93859.38;5060466;28;20087;-65
2023/06/29 07:30:36;;;;;;;6.70;3.30;;;;;;;32.44;30.18;93870.16;5072489;28;20047;-65
2023/06/29 07:33:03;;;;;;;5.60;3.17;;;;;;;33.29;28.57;93861.88;5069709;28;20044;-65
2023/06/29 07:35:30;;;;;;;5.85;3.10;;;;;;;31.28;29.59;93867.88;5056361;28;20041;-65
2023/06/29 07:37:57;;;;;;;6.03;2.83;;;;;;;30.69;29.53;93857.66;5069869;28;20049;-65
2023/06/29 07:40:24;;;;;;;3.90;2.60;;;;;;;30.21;30.52;93854.06;5069090;28;20037;-64
2023/06/29 07:42:51;;;;;;;5.07;2.57;;;;;;;27.69;33.98;93852.66;5069599;28;20446;-65
2023/06/29 07:45:17;;;;;;;5.50;2.75;;;;;;;27.23;35.03;93862.84;5069518;28;20047;-64
2023/06/29 07:47:44;;;;;;;4.70;2.83;;;;;;;26.07;35.38;93856.22;5069094;28;20037;-65
2023/06/29 07:50:11;;;;;;;5.40;2.78;;;;;;;25.84;37.48;93852.75;5069226;28;20040;-65
2023/06/29 07:52:38;;;;;;;7.60;2.88;;;;;;;24.99;37.76;93852.94;5068704;28;20070;-64
2023/06/29 07:55:04;;;;;;;3.97;2.67;;;;;;;26.53;37.01;93842.66;5055718;28;20040;-64
2023/06/29 07:57:31;;;;;;;6.50;3.00;;;;;;;27.74;34.89;93848.25;5068742;28;20053;-64
2023/06/29 08:00:01;;;;;;;4.78;3.10;;;;;;;28.62;33.18;93841.97;5052054;28;20040;-65
2023/06/29 08:02:28;;;;;;;6.20;2.90;;;;;;;29.02;31.70;93839.28;5051202;28;20048;-65
2023/06/29 08:04:54;;;;;;;5.25;2.80;;;;;;;28.95;32.29;93839.91;5068916;28;20048;-64
2023/06/29 08:07:24;;;;;;;5.43;2.93;;;;;;;27.40;33.65;93846.53;5060100;28;20473;-64
2023/06/29 08:09:51;;;;;;;5.05;3.13;;;;;;;26.52;36.30;93844.69;5064754;28;20044;-65
2023/06/29 08:12:18;;;;;;;5.80;3.10;;;;;;;26.04;38.12;93846.03;5068782;28;20052;-64
2023/06/29 08:14:44;;;;;;;4.50;3.15;;;;;;;26.66;36.73;93848.47;5068023;28;20567;-64
2023/06/29 08:17:11;;;;;;;5.35;3.10;;;;;;;27.31;35.13;93849.72;5061492;28;20521;-65
2023/06/29 08:19:38;;;;;;;5.53;3.10;;;;;;;27.59;35.02;93852.25;5044858;28;20409;-64
2023/06/29 08:22:05;;;;;;;4.90;2.80;;;;;;;30.94;30.36;93846.78;5055311;28;20056;-65
2023/06/29 08:24:32;;;;;;;7.97;2.72;;;;;;;32.68;28.83;93843.38;5050907;28;20045;-65
2023/06/29 08:26:58;;;;;;;5.78;2.92;;;;;;;33.90;25.26;93841.91;5068227;28;20075;-65
2023/06/29 08:29:25;;;;;;;5.43;2.88;;;;;;;34.67;24.28;93838.06;5070374;28;20078;-65
2023/06/29 08:31:52;;;;;;;6.47;2.53;;;;;;;35.93;23.37;93833.13;5069915;28;20044;-65
2023/06/29 08:34:19;;;;;;;5.68;2.38;;;;;;;37.36;22.00;93838.94;5068427;28;20049;-64
2023/06/29 08:36:46;;;;;;;5.35;2.40;;;;;;;37.68;20.83;93836.38;5068294;28;20043;-66
2023/06/29 08:39:14;;;;;;;4.88;2.50;;;;;;;37.85;20.80;93827.69;5068497;28;20048;-66
2023/06/29 08:41:41;;;;;;;4.35;2.50;;;;;;;33.98;23.85;93825.56;5068031;28;20066;-65
2023/06/29 08:44:08;;;;;;;3.83;2.20;;;;;;;35.36;23.03;93826.97;5068402;28;20044;-66
2023/06/29 08:46:37;;;;;;;9.45;2.50;;;;;;;35.94;22.08;93828.94;5068195;28;20040;-65
2023/06/29 08:49:06;;;;;;;4.47;2.22;;;;;;;35.04;23.63;93818.47;5068667;28;20075;-66
2023/06/29 08:51:37;;;;;;;5.55;2.40;;;;;;;37.30;21.47;93817.69;5068109;28;20383;-65
2023/06/29 08:54:04;;;;;;;5.47;2.50;;;;;;;37.22;20.86;93814.94;5068760;28;20064;-66
2023/06/29 08:56:32;;;;;;;6.53;2.43;;;;;;;37.55;20.91;93818.22;5068041;28;20052;-65
2023/06/29 08:58:58;;;;;;;5.18;2.50;;;;;;;38.52;20.75;93811.16;5068464;28;20060;-65
2023/06/29 09:01:26;;;;;;;4.13;2.47;;;;;;;38.90;19.98;93818.16;5054666;28;20049;-65
2023/06/29 09:03:54;;;;;;;5.53;2.50;;;;;;;38.40;20.36;93807.34;5068382;28;20036;-65
2023/06/29 09:06:23;;;;;;;4.30;2.25;;;;;;;38.32;20.38;93801.78;5068010;28;20048;-66
2023/06/29 09:08:53;;;;;;;5.80;2.30;;;;;;;38.80;19.99;93803.06;5050600;28;20044;-65
2023/06/29 09:11:20;;;;;;;3.78;2.33;;;;;;;38.09;19.80;93807.94;5068162;28;20180;-65
2023/06/29 09:13:49;;;;;;;5.35;2.50;;;;;;;35.40;22.95;93800.88;5054759;28;20417;-65
2023/06/29 09:16:21;;;;;;;5.13;2.53;;;;;;;35.30;23.38;93803.63;5068501;28;20397;-66
2023/06/29 09:18:54;;;;;;;3.72;2.60;;;;;;;36.60;22.14;93806.44;5067536;28;20375;-65
2023/06/29 09:21:23;;;;;;;5.10;2.40;;;;;;;34.16;24.36;93800.09;5069408;28;20053;-64
2023/06/29 09:23:50;;;;;;;6.22;2.65;;;;;;;32.64;26.18;93795.44;5051074;28;20044;-65
2023/06/29 09:26:17;;;;;;;4.28;2.72;;;;;;;34.15;24.70;93795.75;5056427;28;20068;-65
2023/06/29 09:28:45;;;;;;;5.43;3.20;;;;;;;37.12;21.42;93797.75;5065839;28;20743;-65
2023/06/29 09:31:12;;;;;;;5.18;3.08;;;;;;;38.04;20.32;93788.94;5073967;28;20037;-65
2023/06/29 09:33:39;;;;;;;5.40;2.80;;;;;;;37.62;21.35;93790.84;5058331;28;20048;-64
2023/06/29 09:36:07;;;;;;;5.90;2.88;;;;;;;37.95;20.52;93796.16;5072280;28;20056;-65
2023/06/29 09:38:35;;;;;;;8.15;3.17;;;;;;;36.04;21.90;93791.88;5068423;28;20261;-64
2023/06/29 09:41:05;;;;;;;6.38;3.15;;;;;;;34.12;23.41;93794.00;5061978;28;20478;-65
2023/06/29 09:43:32;;;;;;;6.28;3.10;;;;;;;33.87;24.87;93782.50;5071262;28;20049;-65
2023/06/29 09:46:01;;;;;;;5.57;3.67;;;;;;;30.80;28.01;93785.78;5071904;28;20060;-65
2023/06/29 09:48:30;;;;;;;5.88;3.75;;;;;;;33.78;24.92;93772.47;5071507;28;20040;-64
2023/06/29 09:51:00;;;;;;;6.93;4.80;;;;;;;32.24;26.16;93784.50;5071892;28;20040;-65
2023/06/29 09:53:31;;;;;;;6.55;4.40;;;;;;;32.84;25.65;93776.69;5070108;28;20037;-64
2023/06/29 09:55:59;;;;;;;8.40;5.30;;;;;;;31.52;27.40;93787.34;5063844;28;20051;-65
2023/06/29 09:58:28;;;;;;;9.00;5.90;;;;;;;31.88;26.87;93784.53;5070741;28;20429;-64
2023/06/29 10:00:58;;;;;;;8.70;6.80;;;;;;;28.62;29.61;93774.22;5071512;28;20066;-64
2023/06/29 10:03:31;;;;;;;9.48;5.78;;;;;;;32.49;26.52;93769.78;5071116;28;20045;-64
2023/06/29 10:06:03;;;;;;;9.40;6.82;;;;;;;28.40;30.66;93774.53;5071269;28;20120;-64
2023/06/29 10:08:32;;;;;;;10.27;6.53;;;;;;;31.51;27.91;93772.41;5070919;28;20041;-64
2023/06/29 10:11:02;;;;;;;9.40;6.60;;;;;;;31.53;27.75;93775.44;5061964;28;20048;-64
2023/06/29 10:13:37;;;;;;;9.57;6.20;;;;;;;33.21;26.75;93762.31;5067146;28;20041;-64
2023/06/29 10:16:08;;;;;;;9.18;6.05;;;;;;;32.86;26.60;93772.53;5068228;28;20186;-64
2023/06/29 10:18:41;;;;;;;9.88;6.28;;;;;;;32.47;26.67;93763.91;5061389;28;20033;-65
2023/06/29 10:21:07;;;;;;;9.00;6.13;;;;;;;33.83;26.77;93763.75;5066405;28;20052;-65
2023/06/29 10:23:35;;;;;;;10.23;6.50;;;;;;;34.90;24.75;93764.56;5052819;28;20043;-65
2023/06/29 10:26:03;;;;;;;10.65;6.53;;;;;;;34.62;24.39;93760.72;5071045;28;20105;-65
2023/06/29 10:28:31;;;;;;;8.90;6.22;;;;;;;35.21;23.72;93764.34;5070294;28;20155;-66
2023/06/29 10:31:01;;;;;;;8.75;6.10;;;;;;;33.21;25.62;93765.16;5073997;28;20060;-66
2023/06/29 10:33:28;;;;;;;9.90;6.50;;;;;;;33.06;26.12;93759.44;5066855;28;20044;-66
2023/06/29 10:36:01;;;;;;;8.20;5.87;;;;;;;31.22;28.71;93765.94;5061758;28;20049;-66
2023/06/29 10:38:33;;;;;;;8.50;5.80;;;;;;;30.92;29.13;93763.63;5056952;28;20032;-65
2023/06/29 10:41:20;;;;;;;8.82;6.30;;;;;;;30.61;29.52;93752.03;5070616;28;20048;-66
2023/06/29 10:44:00;;;;;;;10.20;6.53;;;;;;;30.45;29.65;93754.69;5069536;28;20397;-65
2023/06/29 10:46:49;;;;;;;9.52;6.50;;;;;;;30.33;29.63;93759.09;5069621;28;20055;-64
2023/06/29 10:49:24;;;;;;;11.30;7.60;;;;;;;30.26;29.88;93752.03;5061329;28;20037;-65
2023/06/29 10:51:54;;;;;;;11.05;6.90;;;;;;;31.25;28.88;93754.25;5069558;28;20765;-65
2023/06/29 10:54:23;;;;;;;9.07;6.50;;;;;;;33.05;26.48;93750.16;5070056;28;20112;-65
2023/06/29 10:57:07;;;;;;;11.50;7.10;;;;;;;31.43;27.92;93746.81;5070318;28;20129;-65
2023/06/29 10:59:36;;;;;;;11.75;7.20;;;;;;;29.84;30.12;93745.50;5070404;28;20493;-65
2023/06/29 11:02:03;;;;;;;11.03;7.40;;;;;;;29.50;30.74;93745.41;5039354;28;20049;-65
2023/06/29 11:04:31;;;;;;;10.60;7.60;;;;;;;29.85;31.39;93738.53;5070001;28;20071;-64
2023/06/29 11:07:05;;;;;;;11.40;8.10;;;;;;;29.94;30.90;93735.28;5070495;28;20068;-65
2023/06/29 11:09:32;;;;;;;11.55;7.38;;;;;;;29.18;31.77;93732.94;5069298;28;20053;-65
2023/06/29 11:11:59;;;;;;;15.00;7.75;;;;;;;28.47;32.83;93734.38;5069732;28;20048;-65
2023/06/29 11:14:25;;;;;;;12.53;7.73;;;;;;;27.54;33.37;93731.84;5069678;28;20040;-64
2023/06/29 11:16:54;;;;;;;11.27;7.35;;;;;;;28.63;33.43;93729.78;5070043;28;20471;-65
2023/06/29 11:19:26;;;;;;;12.98;8.60;;;;;;;29.56;31.61;93724.22;5059253;28;20049;-64
2023/06/29 11:21:55;;;;;;;13.65;8.80;;;;;;;28.52;32.75;93736.41;5068392;28;20049;-65
2023/06/29 11:24:22;;;;;;;14.35;8.27;;;;;;;28.09;34.91;93737.28;5069327;28;20048;-64
2023/06/29 11:26:49;;;;;;;12.67;7.97;;;;;;;28.98;34.05;93725.09;5056117;28;20044;-64
2023/06/29 11:29:16;;;;;;;10.98;7.50;;;;;;;29.28;33.15;93733.28;5070378;28;20047;-65